Time;durP1;ratioP1;P1;durP2;ratioP2;P2;SDS_P1;SDS_P2;PMS_P1;PMS_P2;Temp;Humidity;BMP_temperature;BMP_pressure;BME280_temperature;BME280_humidity;BME280_pressure;Samples;Min_cycle;Max_cycle;Signal;HPM_P1;HPM_P2
2022/11/02 00:00:24;;;;;;;12.95;7.28;;;;;;;12.97;50.39;100023.97;5012794;28;20010;-80
2022/11/02 00:02:49;;;;;;;14.38;7.25;;;;;;;12.85;50.70;99993.63;5012766;28;20525;-79
2022/11/02 00:05:15;;;;;;;9.73;6.60;;;;;;;12.79;50.67;99994.34;5012628;28;20022;-79
2022/11/02 00:07:41;;;;;;;13.43;6.80;;;;;;;13.17;51.19;100056.94;5012576;28;20522;-79
2022/11/02 00:10:08;;;;;;;13.80;6.97;;;;;;;13.68;50.75;100134.78;5012604;28;20462;-80
2022/11/02 00:12:33;;;;;;;11.18;6.53;;;;;;;13.63;50.94;100161.06;5012607;28;20014;-79
2022/11/02 00:14:59;;;;;;;14.57;6.60;;;;;;;13.64;51.09;100133.50;5011443;28;20489;-79
2022/11/02 00:17:25;;;;;;;12.82;6.82;;;;;;;12.91;50.87;100012.25;5012535;28;20602;-79
2022/11/02 00:19:50;;;;;;;14.65;7.25;;;;;;;13.19;50.91;100049.59;5011277;28;20018;-79
2022/11/02 00:22:16;;;;;;;15.48;7.75;;;;;;;12.96;51.04;100015.19;5012571;28;20036;-79
2022/11/02 00:24:41;;;;;;;14.93;7.90;;;;;;;13.34;50.75;100089.38;5012370;28;20109;-78
2022/11/02 00:27:07;;;;;;;13.50;7.53;;;;;;;13.60;50.78;100126.94;5012519;28;20025;-79
2022/11/02 00:29:33;;;;;;;14.35;6.57;;;;;;;13.29;50.82;100086.47;5011259;28;20070;-79
2022/11/02 00:31:59;;;;;;;13.50;6.55;;;;;;;13.53;51.06;100127.84;5012361;28;20029;-80
2022/11/02 00:34:24;;;;;;;12.02;6.25;;;;;;;13.01;51.50;100067.66;5012256;28;20022;-80
2022/11/02 00:36:50;;;;;;;12.75;6.50;;;;;;;13.04;51.30;100077.91;5012410;28;20022;-80
2022/11/02 00:39:15;;;;;;;11.30;6.15;;;;;;;12.74;51.83;100013.44;5012225;28;20033;-79
2022/11/02 00:41:41;;;;;;;12.05;6.43;;;;;;;12.90;51.39;100031.81;5010973;28;20149;-80
2022/11/02 00:44:07;;;;;;;12.68;5.75;;;;;;;12.70;51.55;100015.63;5011366;28;20430;-79
2022/11/02 00:46:32;;;;;;;12.27;6.32;;;;;;;13.28;51.45;100100.72;5012198;28;20112;-79
2022/11/02 00:48:58;;;;;;;9.55;6.35;;;;;;;12.69;51.66;100023.75;5012077;28;20026;-79
2022/11/02 00:51:23;;;;;;;12.82;6.35;;;;;;;12.64;51.68;100011.03;5010689;28;20044;-79
2022/11/02 00:53:49;;;;;;;8.40;5.90;;;;;;;13.09;52.25;100096.75;5012253;28;20384;-79
2022/11/02 00:56:14;;;;;;;9.85;6.10;;;;;;;12.91;51.89;100075.88;5010727;28;20029;-79
2022/11/02 00:58:39;;;;;;;10.48;6.03;;;;;;;12.75;51.84;100048.69;5012118;28;20030;-79
2022/11/02 01:01:06;;;;;;;10.25;6.15;;;;;;;12.55;51.71;100020.03;5011863;28;20026;-80
2022/11/02 01:03:31;;;;;;;11.07;5.85;;;;;;;12.32;52.05;100001.53;5011929;28;20491;-79
2022/11/02 01:05:57;;;;;;;16.27;6.40;;;;;;;12.93;52.01;100078.34;5010494;28;20022;-80
2022/11/02 01:08:22;;;;;;;9.50;5.20;;;;;;;12.76;51.95;100037.09;5010438;28;20072;-79
2022/11/02 01:10:47;;;;;;;9.10;5.40;;;;;;;13.14;52.28;100104.97;5011734;28;20053;-79
2022/11/02 01:13:13;;;;;;;11.77;6.07;;;;;;;12.32;52.36;99980.34;5010447;28;20407;-80
2022/11/02 01:15:38;;;;;;;11.02;5.70;;;;;;;12.99;51.99;100136.75;5011647;28;20040;-80
2022/11/02 01:18:04;;;;;;;7.63;5.22;;;;;;;12.25;52.70;99986.53;5011675;28;20410;-80
2022/11/02 01:20:30;;;;;;;8.63;6.22;;;;;;;12.60;52.49;100032.75;5010249;28;20529;-79
2022/11/02 01:22:57;;;;;;;11.68;5.65;;;;;;;12.92;52.11;100098.72;5011531;28;20029;-79
2022/11/02 01:25:23;;;;;;;10.15;5.05;;;;;;;12.40;52.47;100006.75;5011578;28;20429;-80
2022/11/02 01:27:49;;;;;;;8.55;5.28;;;;;;;12.59;52.72;100052.28;5011562;28;20025;-79
2022/11/02 01:30:14;;;;;;;11.25;6.05;;;;;;;11.13;52.60;99813.34;5010261;28;20018;-79
2022/11/02 01:32:39;;;;;;;8.00;5.65;;;;;;;12.09;52.75;99976.91;5011627;28;20022;-79
2022/11/02 01:35:05;;;;;;;10.85;5.45;;;;;;;12.80;52.70;100108.09;5011284;28;20022;-79
2022/11/02 01:37:30;;;;;;;9.55;5.70;;;;;;;11.88;52.41;99935.19;5011716;28;20097;-79
2022/11/02 01:39:56;;;;;;;10.52;5.43;;;;;;;12.05;52.89;99965.84;5010123;28;20022;-79
2022/11/02 01:42:24;;;;;;;9.02;5.30;;;;;;;12.33;52.12;100048.19;5011385;28;20022;-79
2022/11/02 01:44:49;;;;;;;10.50;5.97;;;;;;;12.33;52.58;99997.88;5011267;28;20449;-79
2022/11/02 01:47:31;;;;;;;10.65;6.28;;;;;;;12.39;52.48;100020.19;5010114;28;20025;-79
2022/11/02 01:50:26;;;;;;;8.32;5.03;;;;;;;12.17;52.42;99968.06;5011525;28;20018;-79
2022/11/02 01:52:52;;;;;;;11.57;5.68;;;;;;;12.61;52.19;100052.94;5010040;28;20022;-79
2022/11/02 01:55:24;;;;;;;8.63;5.65;;;;;;;12.72;52.73;100060.47;5012068;28;20053;-79
2022/11/02 01:58:11;;;;;;;10.48;4.90;;;;;;;12.85;52.55;100087.19;5015313;28;20080;-79
2022/11/02 02:00:37;;;;;;;8.98;5.47;;;;;;;12.56;52.30;100042.88;5015160;28;20033;-79
2022/11/02 02:03:17;;;;;;;8.85;5.35;;;;;;;12.81;52.26;100079.78;5014198;28;20026;-80
2022/11/02 02:05:52;;;;;;;9.43;5.60;;;;;;;13.02;52.26;100093.16;5013646;28;20018;-80
2022/11/02 02:08:19;;;;;;;9.32;5.43;;;;;;;12.80;52.36;100064.88;5014662;28;20403;-79
2022/11/02 02:10:45;;;;;;;9.80;5.78;;;;;;;13.04;52.38;100104.41;5014713;28;20418;-79
2022/11/02 02:13:11;;;;;;;8.65;5.82;;;;;;;13.05;52.24;100098.09;5013470;28;20021;-79
2022/11/02 02:15:42;;;;;;;9.85;5.72;;;;;;;12.47;52.27;100006.03;5013472;28;20104;-79
2022/11/02 02:18:34;;;;;;;11.48;5.00;;;;;;;12.44;51.88;100006.41;5013612;28;20022;-79
2022/11/02 02:21:41;;;;;;;10.88;5.82;;;;;;;12.96;52.58;100099.19;5014840;28;20414;-80
2022/11/02 02:24:40;;;;;;;14.30;7.13;;;;;;;12.97;52.14;100092.88;5014164;28;20041;-79
2022/11/02 02:27:12;;;;;;;11.18;5.65;;;;;;;12.96;52.11;100097.38;5013313;28;20105;-79
2022/11/02 02:30:02;;;;;;;11.27;5.85;;;;;;;12.94;52.46;100099.38;5013305;28;20120;-79
2022/11/02 02:33:00;;;;;;;9.10;5.63;;;;;;;12.91;52.20;100101.56;5014412;28;20022;-79
2022/11/02 02:35:34;;;;;;;10.10;5.20;;;;;;;12.49;52.19;100035.81;5014440;28;20152;-79
2022/11/02 02:38:01;;;;;;;11.57;6.20;;;;;;;12.86;52.53;100107.41;5013298;28;20030;-79
2022/11/02 02:40:56;;;;;;;7.45;4.85;;;;;;;12.75;52.44;100096.41;5014452;28;20526;-79
2022/11/02 02:43:36;;;;;;;11.88;5.03;;;;;;;12.57;53.00;100089.56;5013959;28;20038;-79
2022/11/02 02:46:11;;;;;;;10.00;4.95;;;;;;;12.47;52.85;100061.66;5012985;28;20072;-79
2022/11/02 02:48:41;;;;;;;12.35;6.03;;;;;;;12.66;52.77;100106.25;5014362;28;20563;-79
2022/11/02 02:51:11;;;;;;;8.38;5.07;;;;;;;12.54;52.50;100071.38;5014090;28;20017;-79
2022/11/02 02:53:45;;;;;;;10.30;5.72;;;;;;;12.68;52.73;100091.00;5014003;28;20109;-79
2022/11/02 02:56:14;;;;;;;8.10;5.45;;;;;;;12.21;52.70;100011.72;5012918;28;20459;-79
2022/11/02 02:58:52;;;;;;;9.70;5.85;;;;;;;12.30;52.44;100047.72;5014163;28;20018;-79
2022/11/02 03:01:18;;;;;;;12.27;5.47;;;;;;;12.07;52.34;100003.53;5014247;28;20030;-79
2022/11/02 03:03:44;;;;;;;9.68;5.20;;;;;;;12.18;52.62;100012.06;5013873;28;20022;-79
2022/11/02 03:06:35;;;;;;;11.98;5.32;;;;;;;12.64;52.27;100082.56;5013982;28;20026;-79
2022/11/02 03:09:09;;;;;;;10.68;5.20;;;;;;;12.60;52.30;100081.25;5013408;28;20160;-79
2022/11/02 03:11:49;;;;;;;11.55;4.80;;;;;;;11.93;52.90;99988.44;5012485;28;20057;-79
2022/11/02 03:14:27;;;;;;;10.05;5.18;;;;;;;12.39;52.57;100055.44;5012445;28;20014;-79
2022/11/02 03:17:01;;;;;;;14.55;5.60;;;;;;;12.58;52.39;100082.44;5013653;28;20475;-80
2022/11/02 03:19:30;;;;;;;10.57;6.15;;;;;;;12.60;52.75;100085.72;5013573;28;20549;-79
2022/11/02 03:22:03;;;;;;;16.42;6.43;;;;;;;12.58;52.89;100101.78;5012208;28;20026;-79
2022/11/02 03:24:45;;;;;;;10.90;5.95;;;;;;;12.21;52.68;100032.91;5013334;28;20491;-80
2022/11/02 03:27:49;;;;;;;9.40;5.60;;;;;;;12.48;53.12;100080.03;5012103;28;20052;-80
2022/11/02 03:30:18;;;;;;;12.07;5.40;;;;;;;12.52;52.67;100077.84;5009115;28;20549;-79
2022/11/02 03:33:05;;;;;;;13.60;6.15;;;;;;;12.54;53.05;100073.19;5012129;28;20105;-79
2022/11/02 03:35:51;;;;;;;10.80;5.60;;;;;;;12.52;52.75;100078.66;5013386;28;20105;-79
2022/11/02 03:38:24;;;;;;;13.30;6.80;;;;;;;12.02;52.67;100000.59;5013519;28;20024;-80
2022/11/02 03:40:53;;;;;;;13.23;7.05;;;;;;;11.52;52.37;99928.78;5013312;28;20034;-79
2022/11/02 03:43:20;;;;;;;10.88;6.05;;;;;;;12.30;52.97;100067.09;5013310;28;20438;-80
2022/11/02 03:45:56;;;;;;;12.73;5.85;;;;;;;12.47;52.60;100082.84;5013051;28;20418;-79
2022/11/02 03:48:28;;;;;;;11.05;5.95;;;;;;;11.59;53.24;99954.34;5013199;28;20033;-79
2022/11/02 03:50:56;;;;;;;11.32;6.22;;;;;;;12.22;53.34;100051.25;5012963;28;20026;-79
2022/11/02 03:53:31;;;;;;;10.82;5.80;;;;;;;12.39;52.87;100078.44;5012912;28;20025;-79
2022/11/02 03:56:06;;;;;;;10.10;5.68;;;;;;;12.04;53.35;100017.13;5012917;28;20029;-79
2022/11/02 03:58:32;;;;;;;10.30;5.97;;;;;;;12.08;53.31;100017.59;5012766;28;20022;-80
2022/11/02 04:01:02;;;;;;;11.20;5.78;;;;;;;12.44;52.82;100078.72;5012909;28;20028;-79
2022/11/02 04:03:31;;;;;;;11.00;5.78;;;;;;;11.91;52.95;100000.19;5012846;28;20037;-79
2022/11/02 04:05:57;;;;;;;8.30;4.90;;;;;;;12.22;53.52;100051.25;5011478;28;20025;-79
2022/11/02 04:08:33;;;;;;;11.57;5.70;;;;;;;11.62;53.25;99992.84;5012766;28;20068;-79
2022/11/02 04:16:26;;;;;;;9.32;6.18;;;;;;;11.74;53.05;99987.00;5012739;28;20033;-79
2022/11/02 04:21:36;;;;;;;9.05;5.97;;;;;;;11.87;53.53;99982.97;5012748;28;20092;-79
2022/11/02 04:26:45;;;;;;;11.68;5.78;;;;;;;11.66;53.30;99957.94;5012433;28;20033;-79
2022/11/02 04:29:11;;;;;;;11.30;6.38;;;;;;;11.81;53.10;99999.56;5012135;28;20021;-80
2022/11/02 04:31:36;;;;;;;11.43;6.40;;;;;;;12.02;53.01;100011.19;5011110;28;20022;-80
2022/11/02 04:34:01;;;;;;;13.23;6.38;;;;;;;11.60;52.99;99960.47;5012360;28;20026;-79
2022/11/02 04:36:31;;;;;;;17.58;6.68;;;;;;;11.81;53.03;99968.63;5012407;28;20022;-79
2022/11/02 04:38:56;;;;;;;15.95;7.20;;;;;;;11.48;53.19;99906.34;5012213;28;20025;-79
2022/11/02 04:41:40;;;;;;;14.85;7.35;;;;;;;12.29;52.76;100035.47;5012039;28;20040;-79
2022/11/02 04:44:07;;;;;;;11.73;6.47;;;;;;;11.76;52.71;99963.84;5010586;28;20556;-80
2022/11/02 04:46:35;;;;;;;11.52;7.22;;;;;;;11.65;52.93;99935.16;5012108;28;20018;-79
2022/11/02 04:49:01;;;;;;;12.98;7.10;;;;;;;11.82;52.63;99959.69;5012135;28;20026;-79
2022/11/02 04:51:28;;;;;;;16.42;7.20;;;;;;;12.44;53.05;100059.38;5011911;28;20029;-80
2022/11/02 04:53:56;;;;;;;14.40;8.27;;;;;;;11.82;52.92;99970.28;5012052;28;20102;-79
2022/11/02 04:56:22;;;;;;;16.73;7.85;;;;;;;12.38;52.94;100064.38;5011979;28;20022;-80
2022/11/02 04:58:49;;;;;;;19.05;8.50;;;;;;;12.33;52.63;100060.59;5011771;28;20045;-79
2022/11/02 05:01:15;;;;;;;15.73;9.10;;;;;;;11.33;52.88;99898.31;5011741;28;20022;-79
2022/11/02 05:03:41;;;;;;;17.42;10.57;;;;;;;11.67;52.71;99972.00;5010428;28;20113;-79
2022/11/02 05:06:08;;;;;;;26.83;13.45;;;;;;;11.44;53.06;99942.88;5010471;28;20025;-79
2022/11/02 05:08:35;;;;;;;31.27;17.45;;;;;;;12.32;53.05;100058.97;5012278;28;20108;-80
2022/11/02 05:11:00;;;;;;;33.03;19.42;;;;;;;11.91;52.04;99997.53;5011687;28;20056;-80
2022/11/02 05:13:26;;;;;;;33.08;18.98;;;;;;;10.94;53.01;99856.88;5011667;28;20100;-79
2022/11/02 05:15:55;;;;;;;29.48;18.55;;;;;;;12.18;52.95;100072.97;5011623;28;20025;-79
2022/11/02 05:18:20;;;;;;;34.53;19.55;;;;;;;12.09;53.40;100078.31;5010540;28;20080;-79
2022/11/02 05:20:54;;;;;;;36.63;20.27;;;;;;;12.12;52.73;100100.13;5011630;28;20022;-79
2022/11/02 05:23:21;;;;;;;34.78;20.10;;;;;;;11.62;52.84;100000.78;5010365;28;20414;-79
2022/11/02 05:26:04;;;;;;;33.85;18.15;;;;;;;12.15;52.66;100082.06;5011563;28;20029;-79
2022/11/02 05:28:30;;;;;;;29.83;15.75;;;;;;;12.09;52.82;100082.78;5011383;28;20022;-79
2022/11/02 05:30:59;;;;;;;29.45;16.05;;;;;;;12.07;52.95;100088.25;5015195;28;20506;-79
2022/11/02 05:33:24;;;;;;;26.25;14.75;;;;;;;11.16;53.05;99947.81;5018161;28;20021;-80
2022/11/02 05:35:50;;;;;;;23.40;14.43;;;;;;;11.28;52.82;99957.00;5018124;28;20018;-80
2022/11/02 05:38:15;;;;;;;22.58;12.43;;;;;;;11.81;53.18;100037.41;5018133;28;20514;-79
2022/11/02 05:40:41;;;;;;;23.13;12.35;;;;;;;12.06;52.88;100110.41;5017890;28;20057;-79
2022/11/02 05:43:08;;;;;;;21.70;12.75;;;;;;;11.87;53.29;100068.47;5018061;28;20037;-79
2022/11/02 05:45:34;;;;;;;24.20;12.73;;;;;;;11.19;52.65;99957.22;5017792;28;20025;-80
2022/11/02 05:48:01;;;;;;;28.13;14.02;;;;;;;12.02;53.05;100097.69;5017717;28;20513;-79
2022/11/02 05:50:27;;;;;;;25.63;13.25;;;;;;;12.09;53.26;100114.53;5016478;28;20030;-79
2022/11/02 05:52:53;;;;;;;26.95;13.95;;;;;;;12.14;53.15;100103.44;5016617;28;20466;-79
2022/11/02 05:55:19;;;;;;;27.38;13.75;;;;;;;12.23;53.26;100107.66;5016600;28;20057;-80
2022/11/02 05:57:53;;;;;;;22.63;13.88;;;;;;;11.87;53.04;100042.00;5016681;28;20159;-79
2022/11/02 06:00:20;;;;;;;21.23;12.18;;;;;;;12.30;53.10;100100.69;5017908;28;20418;-79
2022/11/02 06:02:46;;;;;;;23.20;11.23;;;;;;;11.85;52.72;100024.66;5017770;28;20093;-79
2022/11/02 06:05:12;;;;;;;19.77;11.30;;;;;;;11.70;53.11;99996.28;5017722;28;20052;-79
2022/11/02 06:07:37;;;;;;;21.40;10.93;;;;;;;11.81;53.06;99994.25;5016302;28;20514;-80
2022/11/02 06:10:03;;;;;;;22.45;11.63;;;;;;;12.57;52.84;100120.50;5017373;28;20025;-79
2022/11/02 06:12:28;;;;;;;21.58;10.48;;;;;;;12.09;52.54;100032.47;5017611;28;20026;-80
2022/11/02 06:14:54;;;;;;;19.67;11.85;;;;;;;12.08;52.71;100012.31;5016300;28;20101;-79
2022/11/02 06:17:19;;;;;;;21.58;11.38;;;;;;;12.13;53.37;100025.84;5016195;28;20025;-79
2022/11/02 06:19:46;;;;;;;22.95;12.05;;;;;;;11.84;52.92;99975.41;5016482;28;20056;-79
2022/11/02 06:22:11;;;;;;;28.35;14.65;;;;;;;12.38;53.08;100050.31;5016332;28;20030;-80
2022/11/02 06:24:36;;;;;;;34.20;17.00;;;;;;;12.18;52.91;100017.38;5017590;28;20491;-79
2022/11/02 06:27:02;;;;;;;27.67;15.40;;;;;;;12.75;52.76;100107.00;5016703;28;20093;-79
2022/11/02 06:29:28;;;;;;;25.92;16.98;;;;;;;12.17;52.66;99989.25;5017396;28;20419;-79
2022/11/02 06:31:53;;;;;;;27.25;15.10;;;;;;;12.57;52.76;100051.66;5017295;28;20022;-79
2022/11/02 06:34:18;;;;;;;23.33;13.90;;;;;;;12.43;52.71;100020.66;5015960;28;20029;-79
2022/11/02 06:36:44;;;;;;;23.60;15.57;;;;;;;12.24;52.73;99969.00;5017498;28;20025;-79
2022/11/02 06:39:09;;;;;;;23.83;15.77;;;;;;;11.00;52.25;99754.97;5016139;28;20562;-79
2022/11/02 06:41:35;;;;;;;27.52;17.88;;;;;;;12.63;52.17;100022.66;5015637;28;20034;-79
2022/11/02 06:44:00;;;;;;;30.38;17.17;;;;;;;13.23;52.29;100095.16;5013634;28;20026;-80
2022/11/02 06:46:25;;;;;;;29.80;19.08;;;;;;;13.28;52.50;100111.34;5013971;28;20487;-79
2022/11/02 06:48:51;;;;;;;25.73;16.63;;;;;;;13.12;52.15;100058.44;5013936;28;20483;-79
2022/11/02 06:51:16;;;;;;;25.65;14.55;;;;;;;12.43;51.88;99925.31;5012794;28;20104;-80
2022/11/02 06:53:42;;;;;;;28.50;14.05;;;;;;;13.36;52.23;100074.94;5014154;28;20096;-79
2022/11/02 06:56:08;;;;;;;23.00;16.42;;;;;;;12.89;52.00;99977.19;5014038;28;20560;-79
2022/11/02 06:58:33;;;;;;;24.00;14.15;;;;;;;13.00;51.95;99982.03;5013515;28;20030;-79
2022/11/02 07:01:01;;;;;;;23.42;14.95;;;;;;;12.97;51.77;99955.06;5013712;28;20084;-79
2022/11/02 07:03:27;;;;;;;22.70;12.07;;;;;;;13.87;51.74;100090.13;5006127;28;20028;-79
2022/11/02 07:05:52;;;;;;;23.52;14.75;;;;;;;13.61;51.62;100042.84;5007822;28;20037;-79
2022/11/02 07:08:19;;;;;;;21.70;13.38;;;;;;;13.74;51.42;100040.34;5010673;28;20057;-79
2022/11/02 07:10:45;;;;;;;18.42;12.52;;;;;;;14.17;51.55;100091.72;5012238;28;20034;-79
2022/11/02 07:13:10;;;;;;;28.60;15.32;;;;;;;13.83;51.29;100035.75;5013181;28;20037;-79
2022/11/02 07:15:35;;;;;;;25.65;15.80;;;;;;;13.80;51.54;100006.94;5013356;28;20108;-80
2022/11/02 07:18:01;;;;;;;27.27;14.82;;;;;;;13.70;51.26;99980.69;5012360;28;20025;-79
2022/11/02 07:20:29;;;;;;;20.67;14.18;;;;;;;14.35;51.15;100055.94;5004819;28;20030;-79
2022/11/02 07:22:57;;;;;;;20.52;12.70;;;;;;;14.61;51.09;100074.81;5010356;28;20036;-80
2022/11/02 07:25:24;;;;;;;21.17;13.10;;;;;;;12.20;50.98;99681.81;5011598;28;20440;-79
2022/11/02 07:27:49;;;;;;;26.33;16.23;;;;;;;14.72;50.81;100065.50;5012044;28;20030;-79
2022/11/02 07:30:15;;;;;;;20.02;13.48;;;;;;;14.91;50.72;100065.66;5013114;28;20037;-80
2022/11/02 07:32:42;;;;;;;31.30;16.80;;;;;;;14.54;50.60;100016.28;5012836;28;20486;-79
2022/11/02 07:35:12;;;;;;;21.30;14.30;;;;;;;15.09;50.67;100059.03;5013326;28;20025;-79
2022/11/02 07:37:38;;;;;;;20.35;13.65;;;;;;;15.00;50.32;100029.13;5004187;28;20030;-79
2022/11/02 07:40:05;;;;;;;18.27;13.75;;;;;;;15.10;50.17;100031.44;4993447;28;20101;-79
2022/11/02 07:42:31;;;;;;;21.63;13.68;;;;;;;15.17;50.12;100026.97;4993581;28;20085;-80
2022/11/02 07:44:56;;;;;;;20.27;13.30;;;;;;;15.09;49.97;99998.69;4993894;28;20030;-79
2022/11/02 07:47:22;;;;;;;22.52;12.45;;;;;;;15.55;49.94;100051.31;5005793;28;20038;-80
2022/11/02 07:49:47;;;;;;;18.98;9.45;;;;;;;15.53;49.64;100042.72;5011418;28;20025;-79
2022/11/02 07:52:12;;;;;;;20.25;9.63;;;;;;;15.38;49.48;99997.59;5011179;28;20029;-79
2022/11/02 07:54:38;;;;;;;17.13;9.10;;;;;;;15.21;49.50;99948.41;5008821;28;20473;-79
2022/11/02 07:57:03;;;;;;;17.42;8.98;;;;;;;15.22;49.13;99942.91;5005766;28;20026;-79
2022/11/02 07:59:29;;;;;;;16.48;9.18;;;;;;;15.71;49.27;99999.63;5005275;28;20478;-79
2022/11/02 08:01:54;;;;;;;17.08;10.13;;;;;;;15.57;48.82;99962.31;5003613;28;20060;-78
2022/11/02 08:04:19;;;;;;;20.40;9.75;;;;;;;16.08;48.60;100023.09;5008856;28;20042;-79
2022/11/02 08:06:45;;;;;;;13.02;8.80;;;;;;;15.43;48.58;99910.03;5004667;28;20422;-79
2022/11/02 08:09:11;;;;;;;19.55;10.18;;;;;;;15.54;48.46;99898.78;5010766;28;20499;-79
2022/11/02 08:11:36;;;;;;;24.25;15.30;;;;;;;16.27;48.40;100012.66;5005633;28;20041;-79
2022/11/02 08:14:01;;;;;;;22.02;11.45;;;;;;;16.44;48.37;100030.75;5005058;28;20026;-79
2022/11/02 08:16:28;;;;;;;27.55;11.88;;;;;;;16.43;48.12;99993.63;5011489;28;20022;-79
2022/11/02 08:18:54;;;;;;;20.90;11.00;;;;;;;16.35;48.30;99975.16;5004112;28;20026;-79
2022/11/02 08:21:19;;;;;;;19.08;10.70;;;;;;;16.26;48.17;99971.88;4992020;28;20411;-79
2022/11/02 08:23:45;;;;;;;21.98;10.57;;;;;;;16.59;47.98;99971.88;5007646;28;20034;-78
2022/11/02 08:26:10;;;;;;;20.25;10.35;;;;;;;16.59;47.73;99960.41;5000094;28;20030;-79
2022/11/02 08:28:38;;;;;;;29.38;19.65;;;;;;;17.04;48.07;100023.56;5010437;28;20458;-79
2022/11/02 08:31:06;;;;;;;26.77;16.55;;;;;;;16.92;47.92;99987.06;5011888;28;20026;-79
2022/11/02 08:33:31;;;;;;;32.85;22.27;;;;;;;15.74;47.92;99775.59;5006958;28;20422;-79
2022/11/02 08:36:02;;;;;;;21.33;11.65;;;;;;;17.17;47.38;99979.22;5005186;28;20036;-78
2022/11/02 08:38:28;;;;;;;18.23;9.10;;;;;;;16.87;46.78;99926.34;5008648;28;20491;-79
2022/11/02 08:40:54;;;;;;;16.27;8.00;;;;;;;17.44;46.64;100010.94;5010572;28;20108;-78
2022/11/02 08:43:20;;;;;;;20.98;9.35;;;;;;;17.22;46.42;99955.38;5007080;28;20034;-78
2022/11/02 08:45:45;;;;;;;15.00;7.85;;;;;;;17.37;45.90;99982.63;5011578;28;20101;-79
2022/11/02 08:48:11;;;;;;;13.43;7.22;;;;;;;17.45;45.98;99969.88;5008640;28;20034;-79
2022/11/02 08:50:36;;;;;;;12.05;7.13;;;;;;;17.68;45.81;99987.25;5008641;28;20049;-79
2022/11/02 08:53:02;;;;;;;14.07;9.48;;;;;;;17.37;45.99;99915.91;5007670;28;20038;-79
2022/11/02 08:55:27;;;;;;;17.40;8.90;;;;;;;17.53;45.85;99931.44;5008952;28;20018;-79
2022/11/02 08:57:55;;;;;;;20.42;7.80;;;;;;;18.08;45.30;99990.53;5011240;28;20164;-78
2022/11/02 09:00:26;;;;;;;16.67;8.85;;;;;;;17.84;45.21;99936.03;5008112;28;20116;-79
2022/11/02 09:03:02;;;;;;;22.00;11.32;;;;;;;18.23;45.24;99984.88;5006306;28;20018;-78
2022/11/02 09:05:29;;;;;;;18.90;8.02;;;;;;;18.36;44.79;99980.25;5010754;28;20111;-78
2022/11/02 09:08:00;;;;;;;12.48;7.30;;;;;;;18.48;44.92;99972.34;5008252;28;20077;-78
2022/11/02 09:10:31;;;;;;;18.58;8.20;;;;;;;18.20;44.50;99910.47;5003852;28;20038;-79
2022/11/02 09:13:01;;;;;;;32.73;18.90;;;;;;;18.66;44.35;99967.09;5006054;28;20037;-79
2022/11/02 09:15:28;;;;;;;20.90;12.63;;;;;;;18.12;44.11;99866.13;5011229;28;20286;-79
2022/11/02 09:17:54;;;;;;;24.35;16.20;;;;;;;18.30;43.98;99878.72;5011306;28;20087;-79
2022/11/02 09:20:20;;;;;;;22.65;14.82;;;;;;;18.88;44.03;99951.44;4996841;28;20419;-79
2022/11/02 09:22:46;;;;;;;20.38;12.85;;;;;;;18.93;43.86;99940.06;5003473;28;20117;-79
2022/11/02 09:25:13;;;;;;;17.58;8.27;;;;;;;19.07;43.63;99949.56;5009925;28;20173;-79
2022/11/02 09:27:39;;;;;;;14.65;6.70;;;;;;;18.47;43.33;99837.00;5011004;28;20414;-79
2022/11/02 09:30:05;;;;;;;16.67;8.38;;;;;;;18.63;42.99;99841.00;5009885;28;20567;-79
2022/11/02 09:32:32;;;;;;;29.80;23.00;;;;;;;19.40;42.88;99937.69;5002957;28;20065;-79
2022/11/02 09:35:04;;;;;;;39.90;28.90;;;;;;;19.50;42.69;99930.75;5010709;28;20044;-79
2022/11/02 09:37:30;;;;;;;14.57;9.32;;;;;;;19.59;42.49;99926.72;5010927;28;20108;-79
2022/11/02 09:39:56;;;;;;;14.18;7.93;;;;;;;19.24;42.35;99856.91;5008258;28;20493;-79
2022/11/02 09:42:44;;;;;;;13.48;7.30;;;;;;;19.21;41.99;99830.59;5000645;28;20029;-79
2022/11/02 09:45:14;;;;;;;21.52;12.55;;;;;;;19.04;42.08;99786.78;5006510;28;20029;-79
2022/11/02 09:48:06;;;;;;;14.02;8.27;;;;;;;19.72;41.20;99876.69;5009949;28;20057;-78
2022/11/02 09:50:47;;;;;;;16.38;8.75;;;;;;;19.45;41.30;99807.41;5000406;28;20054;-78
2022/11/02 09:53:25;;;;;;;18.02;8.35;;;;;;;20.18;41.18;99903.59;5008542;28;20426;-79
2022/11/02 09:55:57;;;;;;;14.90;6.68;;;;;;;20.29;41.04;99905.47;5010492;28;20041;-79
2022/11/02 09:58:31;;;;;;;11.73;5.57;;;;;;;20.23;40.76;99887.63;5006098;28;20034;-79
2022/11/02 10:01:02;;;;;;;14.70;7.38;;;;;;;19.92;40.59;99815.53;5009298;28;20018;-79
2022/11/02 10:03:54;;;;;;;14.40;7.57;;;;;;;20.53;40.46;99884.84;5010058;28;20503;-79
2022/11/02 10:06:22;;;;;;;16.15;9.20;;;;;;;20.06;40.44;99800.88;4993776;28;21023;-79
2022/11/02 10:09:34;;;;;;;14.05;6.78;;;;;;;20.58;40.01;99863.50;5007667;28;20113;-78
2022/11/02 10:12:33;;;;;;;15.30;6.30;;;;;;;20.80;39.20;99879.78;5016477;28;20029;-79
2022/11/02 10:15:17;;;;;;;14.30;6.90;;;;;;;20.89;39.70;99878.41;4999638;28;20088;-79
2022/11/02 10:17:47;;;;;;;11.90;5.07;;;;;;;20.89;39.37;99877.59;5010414;28;20514;-79
2022/11/02 10:20:39;;;;;;;12.35;5.55;;;;;;;21.03;38.84;99872.75;5014627;28;20037;-79
2022/11/02 10:23:10;;;;;;;;;;;;;;;20.97;38.06;99871.03;5008926;28;20477;-79
2022/11/02 10:25:36;;;;;;;13.73;5.10;;;;;;;21.11;39.02;99862.47;5012763;28;19913;-79
2022/11/02 10:28:16;;;;;;;15.13;5.30;;;;;;;20.85;38.76;99807.47;5002270;28;20543;-80
2022/11/02 10:30:43;;;;;;;13.60;5.38;;;;;;;20.89;38.22;99805.94;4993742;28;20052;-77
2022/11/02 10:33:24;;;;;;;11.82;5.93;;;;;;;21.36;37.99;99856.78;4993539;28;20034;-79
2022/11/02 10:36:23;;;;;;;15.18;10.15;;;;;;;21.42;38.10;99839.69;5001178;28;20017;-79
2022/11/02 10:38:51;;;;;;;14.57;6.63;;;;;;;21.50;38.10;99836.63;5014335;28;20087;-79
2022/11/02 10:41:19;;;;;;;15.82;6.50;;;;;;;21.59;37.73;99838.94;5000236;28;20030;-79
2022/11/02 10:43:57;;;;;;;8.98;5.00;;;;;;;21.68;37.38;99834.78;5001473;28;20038;-79
2022/11/02 10:46:44;;;;;;;14.02;5.57;;;;;;;21.72;36.95;99830.56;4999763;28;20025;-79
2022/11/02 10:49:39;;;;;;;12.55;5.00;;;;;;;21.75;36.71;99824.69;5000625;28;20525;-78
2022/11/02 10:52:05;;;;;;;11.40;5.95;;;;;;;21.52;36.72;99774.56;4994717;28;20125;-79
2022/11/02 10:54:32;;;;;;;13.98;5.55;;;;;;;21.86;36.62;99813.03;5011977;28;20477;-79
2022/11/02 10:56:58;;;;;;;9.23;5.80;;;;;;;21.87;36.43;99807.44;5013407;28;20096;-79
2022/11/02 10:59:23;;;;;;;12.30;5.05;;;;;;;21.89;36.19;99809.88;5005141;28;20109;-79
2022/11/02 11:01:55;;;;;;;12.07;5.50;;;;;;;21.93;36.03;99804.81;4998433;28;20033;-79
2022/11/02 11:04:24;;;;;;;13.98;5.75;;;;;;;21.44;36.09;99729.31;5010216;28;20026;-79
2022/11/02 11:06:49;;;;;;;13.05;5.18;;;;;;;21.78;35.72;99760.50;5010194;28;20050;-79
2022/11/02 11:09:19;;;;;;;14.50;5.95;;;;;;;22.05;35.58;99795.63;5011318;28;20084;-79
2022/11/02 11:12:00;;;;;;;13.75;5.57;;;;;;;21.32;34.95;99675.69;5012042;28;20095;-79
2022/11/02 11:14:28;;;;;;;13.35;5.65;;;;;;;22.13;35.29;99810.53;5007357;28;20044;-79
2022/11/02 11:16:56;;;;;;;8.75;4.80;;;;;;;21.72;35.43;99715.81;5009399;28;20034;-79
2022/11/02 11:19:37;;;;;;;10.50;4.72;;;;;;;21.85;35.22;99752.28;5010494;28;20408;-77
2022/11/02 11:22:19;;;;;;;10.32;4.85;;;;;;;22.00;35.28;99754.38;5012728;28;20527;-79
2022/11/02 11:24:45;;;;;;;10.05;4.85;;;;;;;21.53;35.05;99693.72;5009795;28;20060;-78
2022/11/02 11:27:10;;;;;;;14.10;6.20;;;;;;;22.13;35.18;99768.31;5005230;28;20097;-77
2022/11/02 11:29:39;;;;;;;15.23;8.27;;;;;;;21.70;35.10;99701.81;4999700;28;20026;-78
2022/11/02 11:32:14;;;;;;;13.23;5.55;;;;;;;22.00;33.59;99763.25;5008535;28;20033;-78
2022/11/02 11:34:40;;;;;;;17.52;7.30;;;;;;;21.73;34.05;99662.88;5011109;28;20083;-78
2022/11/02 11:37:11;;;;;;;12.30;4.60;;;;;;;22.09;33.87;99718.78;5013105;28;20060;-78
2022/11/02 11:39:39;;;;;;;;;;;;;;;22.32;31.94;99757.28;5009305;28;20026;-76
2022/11/02 11:42:17;;;;;;;13.48;4.78;;;;;;;22.32;33.34;99730.38;5008147;28;19914;-77